createdAt,value
2022-07-26T00:01:49.564Z,0.45
2022-07-26T00:04:18.906Z,0.60
2022-07-26T00:06:50.925Z,0.60
2022-07-26T00:09:21.688Z,0.52
2022-07-26T00:11:51.067Z,0.50
2022-07-26T00:14:22.875Z,0.60
2022-07-26T00:16:52.783Z,0.60
2022-07-26T00:19:23.348Z,0.63
2022-07-26T00:22:14.160Z,0.60
2022-07-26T00:24:43.779Z,1.08
2022-07-26T00:27:17.658Z,0.68
2022-07-26T00:29:49.206Z,0.60
2022-07-26T00:32:20.499Z,1.27
2022-07-26T00:34:51.629Z,0.90
2022-07-26T00:37:23.289Z,0.80
2022-07-26T00:39:52.513Z,0.85
2022-07-26T00:42:22.215Z,0.93
2022-07-26T00:44:52.290Z,1.05
2022-07-26T00:47:22.306Z,1.67
2022-07-26T00:49:51.961Z,0.70
2022-07-26T00:52:23.213Z,0.70
2022-07-26T00:54:54.351Z,1.17
2022-07-26T00:57:23.909Z,0.60
2022-07-26T00:59:53.389Z,0.65
2022-07-26T01:02:24.877Z,1.00
2022-07-26T01:04:54.395Z,0.60
2022-07-26T01:07:26.037Z,0.80
2022-07-26T01:09:57.285Z,1.17
2022-07-26T01:12:27.464Z,0.70
2022-07-26T01:14:57.006Z,0.63
2022-07-26T01:17:26.572Z,0.70
2022-07-26T01:19:56.253Z,0.80
2022-07-26T01:22:26.942Z,0.82
2022-07-26T01:24:56.594Z,0.68
2022-07-26T01:27:29.546Z,0.77
2022-07-26T01:30:02.151Z,0.93
2022-07-26T01:32:31.395Z,0.65
2022-07-26T01:35:00.647Z,1.00
2022-07-26T01:37:32.154Z,0.70
2022-07-26T01:40:01.924Z,0.98
2022-07-26T01:42:31.330Z,0.90
2022-07-26T01:45:02.049Z,0.93
2022-07-26T01:47:32.574Z,0.85
2022-07-26T01:50:02.616Z,0.80
2022-07-26T01:52:33.377Z,1.10
2022-07-26T01:55:04.479Z,1.25
2022-07-26T01:57:34.013Z,1.07
2022-07-26T02:00:03.971Z,0.75
2022-07-26T02:02:36.788Z,1.17
2022-07-26T02:05:06.434Z,1.08
2022-07-26T02:07:44.570Z,0.80
2022-07-26T02:10:14.823Z,1.98
2022-07-26T02:12:44.422Z,0.60
2022-07-26T02:15:15.583Z,0.90
2022-07-26T02:17:45.015Z,1.00
2022-07-26T02:20:24.288Z,0.88
2022-07-26T02:22:56.153Z,1.10
2022-07-26T02:25:25.757Z,1.25
2022-07-26T02:27:54.961Z,1.02
2022-07-26T02:30:24.223Z,0.80
2022-07-26T02:32:53.596Z,1.15
2022-07-26T02:35:23.164Z,1.00
2022-07-26T02:37:52.990Z,1.10
2022-07-26T02:40:24.788Z,1.17
2022-07-26T02:42:54.265Z,0.90
2022-07-26T02:45:23.870Z,1.75
2022-07-26T02:47:54.170Z,1.27
2022-07-26T02:50:24.490Z,1.55
2022-07-26T02:52:55.203Z,1.30
2022-07-26T02:55:27.216Z,1.20
2022-07-26T02:57:57.110Z,0.95
2022-07-26T03:00:28.135Z,1.40
2022-07-26T03:02:57.888Z,2.20
2022-07-26T03:05:27.580Z,1.48
2022-07-26T03:07:57.170Z,1.38
2022-07-26T03:13:12.284Z,1.42
2022-07-26T03:15:41.529Z,1.10
2022-07-26T03:18:10.806Z,1.70
2022-07-26T03:20:39.926Z,1.58
2022-07-26T03:23:09.589Z,1.20
2022-07-26T03:25:40.348Z,1.20
2022-07-26T03:28:09.632Z,1.67
2022-07-26T03:30:39.218Z,2.00
2022-07-26T03:33:08.744Z,1.10
2022-07-26T03:35:37.920Z,1.35
2022-07-26T03:38:08.089Z,1.17
2022-07-26T03:40:37.222Z,2.10
2022-07-26T03:43:07.818Z,1.15
2022-07-26T03:45:36.922Z,1.50
2022-07-26T03:48:06.704Z,1.13
2022-07-26T03:50:35.923Z,1.23
2022-07-26T03:53:05.229Z,1.50
2022-07-26T03:55:51.771Z,1.20
2022-07-26T03:58:22.309Z,1.45
2022-07-26T04:00:53.949Z,1.65
2022-07-26T04:03:23.617Z,1.10
2022-07-26T04:05:53.133Z,1.58
2022-07-26T04:08:23.054Z,1.30
2022-07-26T04:10:52.328Z,1.73
2022-07-26T04:13:24.123Z,1.90
2022-07-26T04:15:53.722Z,2.50
2022-07-26T04:18:24.221Z,1.80
2022-07-26T04:20:54.288Z,2.08
2022-07-26T04:23:23.621Z,1.90
2022-07-26T04:25:52.953Z,2.08
2022-07-26T04:28:27.184Z,1.50
2022-07-26T04:30:56.851Z,1.92
2022-07-26T04:33:26.380Z,2.28
2022-07-26T04:35:56.193Z,1.73
2022-07-26T04:38:25.530Z,1.63
2022-07-26T04:40:56.404Z,1.88
2022-07-26T04:43:28.086Z,1.65
2022-07-26T04:45:58.540Z,1.83
2022-07-26T04:48:27.824Z,1.48
2022-07-26T04:50:57.461Z,1.60
2022-07-26T04:53:27.398Z,1.75
2022-07-26T04:55:57.369Z,1.30
2022-07-26T04:58:28.782Z,1.48
2022-07-26T05:01:14.981Z,1.30
2022-07-26T05:03:46.071Z,1.25
2022-07-26T05:06:15.490Z,1.55
2022-07-26T05:08:46.445Z,2.03
2022-07-26T05:11:15.787Z,1.27
2022-07-26T05:13:46.520Z,1.50
2022-07-26T05:16:17.861Z,1.20
2022-07-26T05:18:49.058Z,1.48
2022-07-26T05:21:19.892Z,1.77
2022-07-26T05:23:51.050Z,1.10
2022-07-26T05:26:20.600Z,1.20
2022-07-26T05:28:52.675Z,1.25
2022-07-26T05:31:23.145Z,1.10
2022-07-26T05:33:52.669Z,1.00
2022-07-26T05:36:22.186Z,1.02
2022-07-26T05:38:51.494Z,1.00
2022-07-26T05:41:21.696Z,0.98
2022-07-26T05:43:52.962Z,1.25
2022-07-26T05:46:22.552Z,0.95
2022-07-26T05:48:52.225Z,1.52
2022-07-26T05:51:22.297Z,1.55
2022-07-26T05:53:53.404Z,1.60
2022-07-26T05:56:22.850Z,1.48
2022-07-26T05:58:55.389Z,1.98
2022-07-26T06:03:54.209Z,1.60
2022-07-26T06:06:25.880Z,1.52
2022-07-26T06:08:55.983Z,1.90
2022-07-26T06:11:32.192Z,1.60
2022-07-26T06:14:08.665Z,1.88
2022-07-26T06:16:39.261Z,2.38
2022-07-26T06:19:09.855Z,1.67
2022-07-26T06:21:39.099Z,2.40
2022-07-26T06:24:09.794Z,1.52
2022-07-26T06:26:39.708Z,2.47
2022-07-26T06:29:13.008Z,2.35
2022-07-26T06:31:45.028Z,2.47
2022-07-26T06:36:48.190Z,2.53
2022-07-26T06:39:18.032Z,3.15
2022-07-26T06:41:49.172Z,2.90
2022-07-26T06:44:29.183Z,2.17
2022-07-26T06:46:59.019Z,2.75
2022-07-26T06:49:29.803Z,2.50
2022-07-26T06:51:59.377Z,2.40
2022-07-26T06:54:29.094Z,2.88
2022-07-26T06:56:58.991Z,2.95
2022-07-26T06:59:30.409Z,3.00
2022-07-26T07:02:02.110Z,2.70
2022-07-26T07:04:34.112Z,2.53
2022-07-26T07:07:06.144Z,2.60
2022-07-26T07:09:36.424Z,3.03
2022-07-26T07:12:09.995Z,3.17
2022-07-26T07:14:42.628Z,2.53
2022-07-26T07:17:15.955Z,2.50
2022-07-26T07:19:50.006Z,2.60
2022-07-26T07:22:19.892Z,2.97
2022-07-26T07:24:49.453Z,2.60
2022-07-26T07:27:19.064Z,2.58
2022-07-26T07:29:52.076Z,3.00
2022-07-26T07:32:22.236Z,2.90
2022-07-26T07:34:57.279Z,2.53
2022-07-26T07:37:26.971Z,2.35
2022-07-26T07:40:17.414Z,2.20
2022-07-26T07:42:46.916Z,2.40
2022-07-26T07:45:18.864Z,2.67
2022-07-26T07:47:52.385Z,2.78
2022-07-26T07:50:22.887Z,2.40
2022-07-26T07:52:59.142Z,2.50
2022-07-26T07:55:46.584Z,2.63
2022-07-26T07:58:17.203Z,2.42
2022-07-26T08:00:50.945Z,3.05
2022-07-26T08:03:20.714Z,2.17
2022-07-26T08:05:50.615Z,2.75
2022-07-26T08:08:22.908Z,2.90
2022-07-26T08:10:54.595Z,2.90
2022-07-26T08:13:27.003Z,3.55
2022-07-26T08:16:10.406Z,3.42
2022-07-26T08:18:55.794Z,3.67
2022-07-26T08:21:28.334Z,3.85
2022-07-26T08:23:58.852Z,3.60
2022-07-26T08:26:28.049Z,3.15
2022-07-26T08:28:59.724Z,3.22
2022-07-26T08:31:36.968Z,3.53
2022-07-26T08:34:19.606Z,3.45
2022-07-26T08:37:15.477Z,3.60
2022-07-26T08:39:40.872Z,3.45
2022-07-26T08:42:22.673Z,3.22
2022-07-26T08:44:53.033Z,3.50
2022-07-26T08:47:35.523Z,2.70
2022-07-26T08:50:08.118Z,3.65
2022-07-26T08:52:39.854Z,3.17
2022-07-26T08:55:09.551Z,2.83
2022-07-26T08:57:38.646Z,3.00
2022-07-26T09:00:18.162Z,2.85
2022-07-26T09:02:50.177Z,2.80
2022-07-26T09:05:21.320Z,2.35
2022-07-26T09:07:50.890Z,2.78
2022-07-26T09:10:22.547Z,2.70
2022-07-26T09:12:56.033Z,2.65
2022-07-26T09:15:28.176Z,2.17
2022-07-26T09:20:28.969Z,2.50
2022-07-26T09:23:00.335Z,2.80
2022-07-26T09:25:30.859Z,2.67
2022-07-26T09:28:00.799Z,2.63
2022-07-26T09:30:31.679Z,3.10
2022-07-26T09:33:04.137Z,2.75
2022-07-26T09:35:50.731Z,2.60
2022-07-26T09:38:22.956Z,2.90
2022-07-26T09:40:56.546Z,2.95
2022-07-26T09:43:27.064Z,3.22
2022-07-26T09:46:07.346Z,3.17
2022-07-26T09:49:09.563Z,3.58
2022-07-26T09:51:45.113Z,3.10
2022-07-26T09:54:20.362Z,3.08
2022-07-26T09:59:40.681Z,2.80
2022-07-26T10:02:13.575Z,3.17
2022-07-26T10:04:44.028Z,3.13
2022-07-26T10:07:25.138Z,3.80
2022-07-26T10:10:16.839Z,3.05
2022-07-26T10:12:46.986Z,3.67
2022-07-26T10:15:32.340Z,3.10
2022-07-26T10:18:03.041Z,3.10
2022-07-26T10:23:48.205Z,3.05
2022-07-26T10:26:43.276Z,4.18
2022-07-26T10:29:26.730Z,3.15
2022-07-26T10:32:17.882Z,3.30
2022-07-26T10:34:49.798Z,2.47
2022-07-26T10:37:28.296Z,2.90
2022-07-26T10:40:17.506Z,2.88
2022-07-26T10:42:48.715Z,2.63
2022-07-26T10:45:21.432Z,2.30
2022-07-26T10:48:10.702Z,2.50
2022-07-26T10:50:42.101Z,2.33
2022-07-26T10:53:12.046Z,2.95
2022-07-26T10:55:52.247Z,2.20
2022-07-26T10:58:24.048Z,1.90
2022-07-26T11:00:59.111Z,2.30
2022-07-26T11:03:38.812Z,2.30
2022-07-26T11:06:16.245Z,2.45
2022-07-26T11:09:07.225Z,2.25
2022-07-26T11:11:38.506Z,2.30
2022-07-26T11:14:16.902Z,1.90
2022-07-26T11:16:51.749Z,2.45
2022-07-26T11:19:22.957Z,2.55
2022-07-26T11:21:55.417Z,2.28
2022-07-26T11:24:27.968Z,2.38
2022-07-26T11:26:58.256Z,2.03
2022-07-26T11:29:38.690Z,2.17
2022-07-26T11:32:19.057Z,2.50
2022-07-26T11:34:54.050Z,2.58
2022-07-26T11:37:24.682Z,2.30
2022-07-26T11:39:55.329Z,2.55
2022-07-26T11:42:26.440Z,2.33
2022-07-26T11:44:58.553Z,2.58
2022-07-26T11:50:22.294Z,2.70
2022-07-26T11:52:48.945Z,2.42
2022-07-26T11:55:27.137Z,2.53
2022-07-26T11:57:58.464Z,2.45
2022-07-26T12:00:29.271Z,2.60
2022-07-26T12:02:58.525Z,2.53
2022-07-26T12:05:30.876Z,2.80
2022-07-26T12:08:03.149Z,2.47
2022-07-26T12:10:32.832Z,2.88
2022-07-26T12:13:11.335Z,2.65
2022-07-26T12:15:53.609Z,3.00
2022-07-26T12:18:29.071Z,3.70
2022-07-26T12:21:05.111Z,2.25
2022-07-26T12:23:42.674Z,2.53
2022-07-26T12:26:23.277Z,2.70
2022-07-26T12:28:52.812Z,2.60
2022-07-26T12:31:38.625Z,2.92
2022-07-26T12:34:09.617Z,2.47
2022-07-26T12:36:39.299Z,1.90
2022-07-26T12:39:08.762Z,1.75
2022-07-26T12:41:39.007Z,1.80
2022-07-26T12:44:12.088Z,1.92
2022-07-26T12:46:45.261Z,2.00
2022-07-26T12:49:18.006Z,1.45
2022-07-26T12:51:47.871Z,1.73
2022-07-26T12:54:17.337Z,1.73
2022-07-26T12:56:48.804Z,1.63
2022-07-26T12:59:18.846Z,1.80
2022-07-26T13:01:50.423Z,2.22
2022-07-26T13:04:21.861Z,1.98
2022-07-26T13:06:52.919Z,1.80
2022-07-26T13:09:22.728Z,1.70
2022-07-26T13:11:53.302Z,1.90
2022-07-26T13:14:24.519Z,2.30
2022-07-26T13:16:58.918Z,2.78
2022-07-26T13:19:29.613Z,2.00
2022-07-26T13:21:59.578Z,2.55
2022-07-26T13:24:32.684Z,2.22
2022-07-26T13:27:07.007Z,1.85
2022-07-26T13:29:39.705Z,1.58
2022-07-26T13:32:11.345Z,2.08
2022-07-26T13:34:55.346Z,2.05
2022-07-26T13:37:25.149Z,2.83
2022-07-26T13:39:55.059Z,1.85
2022-07-26T13:42:24.411Z,2.10
2022-07-26T13:44:53.656Z,1.77
2022-07-26T13:47:28.723Z,3.15
2022-07-26T13:50:00.976Z,2.60
2022-07-26T13:52:31.010Z,2.58
2022-07-26T13:55:00.220Z,2.42
2022-07-26T13:57:49.599Z,2.15
2022-07-26T14:00:24.963Z,1.95
2022-07-26T14:02:56.893Z,2.60
2022-07-26T14:05:28.680Z,2.08
2022-07-26T14:07:58.605Z,1.80
2022-07-26T14:10:29.773Z,2.25
2022-07-26T14:13:01.380Z,2.37
2022-07-26T14:15:31.742Z,1.80
2022-07-26T14:18:03.075Z,1.67
2022-07-26T14:20:32.412Z,1.80
2022-07-26T14:23:02.190Z,1.33
2022-07-26T14:25:33.153Z,2.08
2022-07-26T14:28:03.722Z,2.07
2022-07-26T14:30:33.705Z,2.92
2022-07-26T14:33:08.799Z,2.25
2022-07-26T14:35:38.087Z,2.25
2022-07-26T14:38:08.658Z,1.52
2022-07-26T14:40:39.401Z,1.90
2022-07-26T14:43:11.341Z,1.90
2022-07-26T14:45:43.693Z,2.60
2022-07-26T14:48:37.609Z,1.90
2022-07-26T14:51:09.953Z,1.60
2022-07-26T14:53:41.102Z,1.50
2022-07-26T14:56:10.670Z,1.70
2022-07-26T14:58:40.769Z,1.50
2022-07-26T15:01:10.880Z,1.80
2022-07-26T15:03:41.634Z,2.17
2022-07-26T15:06:10.776Z,1.70
2022-07-26T15:08:40.322Z,1.60
2022-07-26T15:11:09.446Z,1.80
2022-07-26T15:13:40.756Z,1.50
2022-07-26T15:16:10.587Z,1.60
2022-07-26T15:18:43.642Z,1.63
2022-07-26T15:21:16.902Z,1.70
2022-07-26T15:23:46.640Z,1.20
2022-07-26T15:26:16.460Z,1.13
2022-07-26T15:28:45.749Z,1.73
2022-07-26T15:31:15.787Z,1.23
2022-07-26T15:34:00.588Z,1.50
2022-07-26T15:36:32.073Z,1.42
2022-07-26T15:39:16.057Z,1.92
2022-07-26T15:42:05.770Z,1.60
2022-07-26T15:44:39.131Z,2.15
2022-07-26T15:47:10.162Z,2.20
2022-07-26T15:49:40.462Z,1.80
2022-07-26T15:52:15.387Z,1.50
2022-07-26T15:54:46.270Z,1.25
2022-07-26T15:57:16.982Z,1.75
2022-07-26T15:59:47.245Z,1.20
2022-07-26T16:02:16.625Z,1.33
2022-07-26T16:04:46.650Z,1.00
2022-07-26T16:07:18.850Z,1.50
2022-07-26T16:09:48.096Z,1.30
2022-07-26T16:12:17.518Z,1.42
2022-07-26T16:14:49.052Z,1.17
2022-07-26T16:17:19.081Z,1.23
2022-07-26T16:19:48.842Z,1.33
2022-07-26T16:22:20.215Z,1.48
2022-07-26T16:24:50.102Z,1.77
2022-07-26T16:27:21.179Z,1.27
2022-07-26T16:29:52.501Z,1.13
2022-07-26T16:32:22.467Z,1.80
2022-07-26T16:34:53.301Z,1.27
2022-07-26T16:37:27.513Z,1.20
2022-07-26T16:39:57.100Z,1.10
2022-07-26T16:42:26.942Z,1.40
2022-07-26T16:44:57.586Z,1.27
2022-07-26T16:47:29.429Z,1.60
2022-07-26T16:49:59.381Z,1.38
2022-07-26T16:52:31.944Z,1.10
2022-07-26T16:55:01.841Z,1.02
2022-07-26T16:57:30.984Z,2.17
2022-07-26T17:00:00.695Z,1.20
2022-07-26T17:02:30.538Z,0.98
2022-07-26T17:05:00.160Z,1.52
2022-07-26T17:07:29.327Z,1.23
2022-07-26T17:10:00.229Z,1.20
2022-07-26T17:12:30.640Z,1.50
2022-07-26T17:15:00.088Z,1.35
2022-07-26T17:17:30.375Z,1.27
2022-07-26T17:20:13.765Z,0.75
2022-07-26T17:25:33.845Z,0.80
2022-07-26T17:28:03.671Z,0.90
2022-07-26T17:30:35.044Z,1.00
2022-07-26T17:33:04.538Z,1.17
2022-07-26T17:35:35.269Z,0.95
2022-07-26T17:38:09.038Z,1.40
2022-07-26T17:40:39.783Z,1.23
2022-07-26T17:43:11.810Z,1.35
2022-07-26T17:45:42.364Z,1.17
2022-07-26T17:48:11.600Z,1.10
2022-07-26T17:50:41.273Z,1.27
2022-07-26T17:53:14.607Z,1.40
2022-07-26T17:55:47.196Z,1.23
2022-07-26T17:58:19.338Z,1.33
2022-07-26T18:03:23.451Z,1.90
2022-07-26T18:05:54.219Z,2.33
2022-07-26T18:08:27.312Z,1.60
2022-07-26T18:10:59.591Z,2.03
2022-07-26T18:16:02.804Z,2.00
2022-07-26T18:18:34.995Z,1.60
2022-07-26T18:21:05.628Z,2.70
2022-07-26T18:23:35.302Z,1.83
2022-07-26T18:26:08.903Z,1.15
2022-07-26T18:28:39.122Z,1.30
2022-07-26T18:31:10.877Z,1.77
2022-07-26T18:33:40.202Z,2.45
2022-07-26T18:36:10.048Z,2.53
2022-07-26T18:38:39.726Z,2.63
2022-07-26T18:41:12.203Z,1.80
2022-07-26T18:43:43.370Z,1.77
2022-07-26T18:46:13.085Z,1.83
2022-07-26T18:48:44.118Z,1.30
2022-07-26T18:51:13.983Z,1.95
2022-07-26T18:53:43.912Z,1.13
2022-07-26T18:56:15.865Z,1.27
2022-07-26T18:58:45.128Z,1.45
2022-07-26T19:01:19.604Z,1.38
2022-07-26T19:04:07.378Z,2.08
2022-07-26T19:06:40.006Z,2.58
2022-07-26T19:09:10.689Z,2.15
2022-07-26T19:11:45.910Z,2.00
2022-07-26T19:14:15.666Z,2.05
2022-07-26T19:16:46.672Z,2.05
2022-07-26T19:19:17.251Z,1.55
2022-07-26T19:21:50.274Z,1.80
2022-07-26T19:24:21.246Z,1.10
2022-07-26T19:26:53.275Z,1.75
2022-07-26T19:29:25.488Z,1.40
2022-07-26T19:31:55.100Z,1.60
2022-07-26T19:34:26.782Z,2.08
2022-07-26T19:36:57.138Z,1.70
2022-07-26T19:39:30.624Z,2.20
2022-07-26T19:42:03.078Z,2.03
2022-07-26T19:47:29.969Z,2.55
2022-07-26T19:50:00.057Z,2.22
2022-07-26T19:52:44.094Z,2.22
2022-07-26T19:55:13.645Z,1.88
2022-07-26T19:57:44.214Z,2.28
2022-07-26T20:00:13.856Z,1.83
2022-07-26T20:02:43.153Z,2.17
2022-07-26T20:05:13.535Z,3.33
2022-07-26T20:07:43.411Z,1.83
2022-07-26T20:10:13.000Z,2.22
2022-07-26T20:12:42.646Z,3.17
2022-07-26T20:15:14.274Z,2.05
2022-07-26T20:17:45.854Z,1.42
2022-07-26T20:20:14.908Z,1.58
2022-07-26T20:22:44.117Z,1.77
2022-07-26T20:25:21.712Z,2.60
2022-07-26T20:27:51.546Z,1.95
2022-07-26T20:30:29.544Z,1.83
2022-07-26T20:32:59.491Z,1.70
2022-07-26T20:35:29.069Z,1.77
2022-07-26T20:38:03.053Z,2.47
2022-07-26T20:40:34.945Z,1.98
2022-07-26T20:43:07.856Z,2.10
2022-07-26T20:45:38.960Z,1.45
2022-07-26T20:48:09.925Z,2.17
2022-07-26T20:50:40.003Z,2.27
2022-07-26T20:53:09.237Z,2.65
2022-07-26T20:55:38.506Z,2.20
2022-07-26T20:58:08.032Z,1.60
2022-07-26T21:00:38.997Z,2.50
2022-07-26T21:03:08.529Z,1.65
2022-07-26T21:05:37.837Z,1.42
2022-07-26T21:08:07.226Z,1.75
2022-07-26T21:10:36.586Z,1.98
2022-07-26T21:13:06.632Z,2.03
2022-07-26T21:15:35.966Z,1.42
2022-07-26T21:18:08.161Z,1.92
2022-07-26T21:23:24.364Z,1.88
2022-07-26T21:25:58.053Z,1.73
2022-07-26T21:28:33.139Z,2.80
2022-07-26T21:31:05.479Z,2.25
2022-07-26T21:33:36.217Z,1.98
2022-07-26T21:36:06.189Z,2.00
2022-07-26T21:38:35.563Z,1.67
2022-07-26T21:41:04.902Z,2.15
2022-07-26T21:43:34.360Z,2.25
2022-07-26T21:46:07.764Z,2.10
2022-07-26T21:48:41.637Z,1.95
2022-07-26T21:51:13.523Z,2.23
2022-07-26T21:53:43.177Z,2.55
2022-07-26T21:56:13.906Z,2.10
2022-07-26T21:58:43.921Z,3.00
2022-07-26T22:01:14.192Z,1.70
2022-07-26T22:03:47.107Z,1.83
2022-07-26T22:06:19.179Z,2.55
2022-07-26T22:08:51.864Z,1.45
2022-07-26T22:11:21.361Z,1.58
2022-07-26T22:13:53.219Z,1.23
2022-07-26T22:16:23.085Z,1.38
2022-07-26T22:18:54.774Z,1.23
2022-07-26T22:21:25.544Z,1.15
2022-07-26T22:23:57.473Z,1.40
2022-07-26T22:26:31.594Z,1.33
2022-07-26T22:29:02.287Z,1.10
2022-07-26T22:31:32.267Z,1.73
2022-07-26T22:34:04.754Z,1.42
2022-07-26T22:36:34.117Z,1.48
2022-07-26T22:39:03.589Z,1.40
2022-07-26T22:41:46.181Z,1.35
2022-07-26T22:44:22.902Z,1.20
2022-07-26T22:46:52.373Z,1.23
2022-07-26T22:49:27.776Z,1.20
2022-07-26T22:51:58.048Z,1.20
2022-07-26T22:54:28.123Z,1.52
2022-07-26T22:57:10.201Z,1.00
2022-07-26T22:59:39.795Z,1.30
2022-07-26T23:02:10.642Z,1.27
2022-07-26T23:04:41.671Z,1.27
2022-07-26T23:07:11.474Z,1.20
2022-07-26T23:09:42.046Z,1.20
2022-07-26T23:12:14.494Z,1.55
2022-07-26T23:14:43.844Z,1.48
2022-07-26T23:17:18.287Z,1.15
2022-07-26T23:19:52.272Z,1.73
2022-07-26T23:22:26.765Z,1.35
2022-07-26T23:24:57.564Z,1.33
2022-07-26T23:27:27.764Z,1.85
2022-07-26T23:29:58.559Z,1.08
2022-07-26T23:32:29.892Z,1.02
2022-07-26T23:35:04.188Z,1.25
2022-07-26T23:37:34.834Z,1.90
2022-07-26T23:40:06.962Z,1.08
2022-07-26T23:45:05.680Z,1.10
2022-07-26T23:47:37.063Z,1.33
2022-07-26T23:50:11.584Z,1.20
2022-07-26T23:52:41.887Z,1.10
2022-07-26T23:55:12.249Z,1.00
2022-07-26T23:57:43.172Z,1.60
